メインページ
METAR-TAF:

METAR-TAF

空港 :

帯広, 日本

帯広空港

緯度: 42-44N, 経度: 143-13E, 海抜: 149m

現時点の気象観測

当レポートは55分前の23:00(UTC)に作成
変向風 2kt
気温 -19°C
湿度 77%
気圧 1015 hPa
視程10km以上
高度4000ftの雲はほとんどない
千切れ雲あり

METAR: RJCB 182300Z VRB02KT 9999 FEW040 BKN/// M19/M22 Q1015

時間: 08:55 (23:55 UTC)

予報

当レポートは48分前の23:07(UTC)に作成
予報は19日の 00時(UTC)から 20日の 06時(UTC)まで有効
南/南東の風 4kt
視程10km以上
高度4000ftの雲はほとんどない
19日の 03時(UTC)から 19日の 05時(UTC)まで徐々に
西/北西の風 5kt
19日の 08時(UTC)から 19日の 10時(UTC)まで徐々に
南/南東の風 5kt
20日の 00時(UTC)から 20日の 03時(UTC)まで徐々に
西/北西の風 4kt

TAF: RJCB 182307Z 1900/2006 15004KT 9999 FEW040 BECMG 1903/1905 30005KT BECMG 1908/1910 16005KT BECMG 2000/2003 30004KT

4,000以上の空港の気象観測と天気予報(METAR報とTAF報)

利用可能な観測所は地図上に黄色い丸と赤い丸で示す。

丸の上にカーソルを重ねると観測所名を参照できる。

次にクリックすると気象観測と天気予報を参照できる。

マップの切り替え:黒色「×」印の緑ボタンをクリックして拡大、「-」印の緑ボタンをクリックして縮小、緑色の三角印をクリックして隣りの地図に切り替え


METAR-TAF: